To modify the report, make a selection from each column below and re-run.

Report Type Graduation Filter Grade Filter Gender

(Grade filter for indiv report.)


Course PR Report: Lacy Park

The report below currently displays:

  • Individual PR's
  • Grads & Current Runners
  • All Grades
  • Girls
  • 3 miles
  • Grads & Current Runners
All Time Rank Runner Name Grad Year Time Pace PR Date PR Event # of
Races
Graph full race
history on course
(pick up to 15)
1 Sydney Morrow 2022 18:29 6:10 9/23/21 Rio Hondo League Meet #1 6
2 Emily Ye 2016 19:10.36 6:23 11/5/15 Rio Hondo League Finals 1
3 Mai Koyama 2022 19:11 6:24 9/26/19 Rio Hondo League #1 6
4 Anika Renken 2013 19:15 6:25 9/23/10 Rio Hondo Cluster #1 2
5 Brooklyn Robinson 2021 19:22.23 6:27 11/2/17 Rio Hondo League Finals 1
6 Maddy Engelsman 2018 19:22.7 6:28 9/22/16 Rio Hondo League #1 5
7 Kerrigan Riley 2022 19:23 6:28 9/23/21 Rio Hondo League Meet #1 3
8 Haena Van Loan 0 19:25 6:28 9/23/10 Rio Hondo Cluster #1 1
9 Bailey Wu 2018 19:30.84 6:30 11/2/17 Rio Hondo League Finals 4
10 Lindsay Michels 2021 19:34 6:31 11/7/19 Rio Hondo League Finals 6
10 Abigail Errington 2025 19:34 6:31 11/4/21 Rio Hondo League Finals 1
12 Helena Van Loan 2014 19:35 6:32 11/4/10 Rio Hondo League Finals 1
13 Elizabeth Bock 2019 19:35.08 6:32 11/5/15 Rio Hondo League Finals 6
14 Kaylee Anderson 2012 19:48 6:36 9/23/10 Rio Hondo Cluster #1 3
15 Lindsey Calva 2019 19:49.92 6:37 11/2/17 Rio Hondo League Finals 6
16 Maaike Wielenga 2016 19:54.38 6:38 11/5/15 Rio Hondo League Finals 1
17 A.j. Ramirez 0 19:56 6:39 9/23/10 Rio Hondo Cluster #1 1
18 Taci Chin-robinson 2012 20:13 6:44 9/23/10 Rio Hondo Cluster #1 1
19 Gabriela Rodriguez 2022 20:14 6:45 11/4/21 Rio Hondo League Finals 6
20 Nicole Endacott 2011 20:24 6:48 10/15/09 Rio Hondo Cluster #2 1
20 Amelia Jarolim 2021 20:24 6:48 9/26/19 Rio Hondo League #1 6
22 Fiona Bock 2016 20:28.57 6:50 11/5/15 Rio Hondo League Finals 1
23 Jessica Hitchcock 2013 20:34 6:51 9/23/10 Rio Hondo Cluster #1 3
24 Sarah Uriarte 2019 20:34.3 6:51 9/22/16 Rio Hondo League #1 6
25 Lilian Zhu 2022 20:35 6:52 9/26/19 Rio Hondo League #1 6
26 Aj Ramirez 0 20:36 6:52 11/4/10 Rio Hondo League Finals 1
27 Briana Nunez 2016 20:36.03 6:52 11/5/15 Rio Hondo League Finals 1
28 Cece Zhu 2012 20:37 6:52 11/4/10 Rio Hondo League Finals 2
29 Caroline Liu 2018 20:37.64 6:53 11/5/15 Rio Hondo League Finals 5
30 Amelie Geoffron 2025 20:40.23 6:53 11/4/21 Rio Hondo League Finals 2
31 Chaerin Lee 2021 20:41.7 6:54 9/20/18 Rio Hondo League #1 2
32 Taci Chin Robinson 0 20:45 6:55 10/15/09 Rio Hondo Cluster #2 1
33 Saidbh Byrne 2025 20:49 6:56 11/4/21 Rio Hondo League Finals 1
34 Celeste Amaya 2018 20:52.87 6:58 9/21/17 Rio Hondo League #1 2
35 Kaile Fernandes 2023 20:55 6:58 9/23/21 Rio Hondo League Meet #1 4
36 Amber Gonzalez Pacheco 2020 20:57.39 6:59 9/21/17 Rio Hondo League #1 7
37 Miranda Liu 2022 20:58 6:59 9/23/21 Rio Hondo League Meet #1 6
38 Aimee Fata 2010 21:06 7:02 10/15/09 Rio Hondo Cluster #2 1
39 Maylis Whetsel 2019 21:10.36 7:03 11/5/15 Rio Hondo League Finals 6
40 Nora Devita 2011 21:17 7:06 10/15/09 Rio Hondo Cluster #2 1
41 Madeline Chin 2013 21:19 7:06 9/23/10 Rio Hondo Cluster #1 3
42 Luyang Zhang 2021 21:21 7:07 9/26/19 Rio Hondo League #1 4
43 Laura Lussier 2012 21:36 7:12 11/4/10 Rio Hondo League Finals 2
44 Quyen Ballagh 2020 21:37.67 7:13 11/2/17 Rio Hondo League Finals 4
45 Katherine Conte 2017 21:42.2 7:14 9/22/16 Rio Hondo League #1 3
46 Sara Jan 2012 21:50 7:17 11/4/10 Rio Hondo League Finals 3
47 Chloe Koo 2025 21:51 7:17 11/4/21 Rio Hondo League Finals 1
48 Kate Lee 2020 21:53.49 7:18 11/2/17 Rio Hondo League Finals 4
49 Caroline Liebe 2020 21:59.65 7:20 11/2/17 Rio Hondo League Finals 4
50 Sofia Humphrey 2025 22:00 7:20 11/4/21 Rio Hondo League Finals 1
51 Camille Endacott 0 22:04 7:21 10/15/09 Rio Hondo Cluster #2 1
52 Maia Thomas 2016 22:04.9 7:22 11/5/15 Rio Hondo League Finals 1
53 Kiana Dettman 2023 22:08 7:23 9/23/21 Rio Hondo League Meet #1 2
54 Natali Lelieur 2018 22:26.82 7:29 11/2/17 Rio Hondo League Finals 5
55 Carmella Shaffer 2019 22:28.31 7:29 11/5/15 Rio Hondo League Finals 1
56 Kei Shao 2013 22:36 7:32 11/4/10 Rio Hondo League Finals 1
57 Kelly Wu 2021 22:38.19 7:33 11/2/17 Rio Hondo League Finals 3
58 Cindy Chan 2012 22:42 7:34 11/4/10 Rio Hondo League Finals 2
59 Lauren Jones 2021 22:50.11 7:37 11/2/17 Rio Hondo League Finals 3
60 Alana Ballagh 2018 22:50.65 7:37 11/5/15 Rio Hondo League Finals 4
61 Ke Shou 0 22:52 7:37 9/23/10 Rio Hondo Cluster #1 1
61 Romeny White 0 22:52 7:37 9/23/10 Rio Hondo Cluster #1 1
63 Daniella Lat 2023 22:55 7:38 11/7/19 Rio Hondo League Finals 4
64 Jenna J 0 22:56 7:39 9/23/10 Rio Hondo Cluster #1 1
65 Sascha Hsin 2024 23:09 7:43 11/4/21 Rio Hondo League Finals 2
66 Amber Laird 2013 23:15 7:45 11/4/10 Rio Hondo League Finals 2
66 Sarah Kang 2022 23:15 7:45 9/26/19 Rio Hondo League #1 4
68 Amber Lord 0 23:16 7:45 9/23/10 Rio Hondo Cluster #1 1
68 Aria Argus 2023 23:16 7:45 9/23/21 Rio Hondo League Meet #1 2
70 Julia Santos 2025 23:22 7:47 11/4/21 Rio Hondo League Finals 2
71 Mallory Downing 0 23:29 7:50 10/15/09 Rio Hondo Cluster #2 1
72 Diana Perea 2022 23:32 7:51 9/26/19 Rio Hondo League #1 4
73 Ashley Moon 2013 23:33 7:51 10/15/09 Rio Hondo Cluster #2 2
74 Remeny White 2014 23:35 7:52 11/4/10 Rio Hondo League Finals 1
75 Sophia Arriola 2014 23:36 7:52 11/4/10 Rio Hondo League Finals 1
76 Maya Gonzalez-Pacheco 2023 23:45 7:55 9/26/19 Rio Hondo League #1 2
77 Sydney Lagarce 2023 23:48 7:56 9/26/19 Rio Hondo League #1 2
78 Sue 0 23:51 7:57 9/23/10 Rio Hondo Cluster #1 1
79 Anastasia Velicescu 0 23:53 7:58 10/15/09 Rio Hondo Cluster #2 1
80 Destiny Rivera 2020 23:54.7 7:58 11/1/18 Rio Hondo League Finals 2
81 Alicia Wilgoren 2023 23:59 8:00 11/7/19 Rio Hondo League Finals 2
82 Kate Feldman 0 24:02 8:01 10/15/09 Rio Hondo Cluster #2 1
83 Lia Lohr 2012 24:11 8:04 10/15/09 Rio Hondo Cluster #2 2
83 Sooji Hong 2012 24:11 8:04 10/15/09 Rio Hondo Cluster #2 1
85 Sophie 0 24:18 8:06 9/23/10 Rio Hondo Cluster #1 1
86 Melanie Romo 2025 24:19 8:06 9/23/21 Rio Hondo League Meet #1 2
87 Vesta Javaheri 2013 24:24 8:08 11/4/10 Rio Hondo League Finals 1
88 Dana Lin 2020 24:26.45 8:09 11/3/16 Rio Hondo League Finals 3
89 Unknown 0 24:28 8:09 9/23/10 Rio Hondo Cluster #1 1
90 Jackie Takarabe 2019 24:32.4 8:11 9/22/16 Rio Hondo League #1 1
91 Susan Rodriguez 2018 24:39.76 8:13 11/2/17 Rio Hondo League Finals 4
92 Sophia Humphrey 2025 24:41 8:14 9/23/21 Rio Hondo League Meet #1 1
93 Claire Wang 2024 24:43 8:14 11/4/21 Rio Hondo League Finals 2
94 Lauren Sharkey 2018 24:44.4 8:15 9/22/16 Rio Hondo League #1 3
95 Franny Cross 2018 24:47.94 8:16 11/3/16 Rio Hondo League Finals 2
96 Priscilla Hsu 0 25:11 8:24 9/23/10 Rio Hondo Cluster #1 1
97 Isabel Chin 2013 25:22 8:27 11/4/10 Rio Hondo League Finals 2
97 Emma Noonan 2025 25:22 8:27 9/23/21 Rio Hondo League Meet #1 2
99 Rachel Lu 2019 25:25.6 8:29 9/22/16 Rio Hondo League #1 1
100 Alyssa Emerich 0 25:29 8:30 10/15/09 Rio Hondo Cluster #2 1
101 Sabrina Sanchez 2014 25:42 8:34 11/4/10 Rio Hondo League Finals 1
101 Ke Shao 2013 25:42 8:34 10/15/09 Rio Hondo Cluster #2 1
103 Quincy Sakai 2024 25:44.65 8:35 11/4/21 Rio Hondo League Finals 1
104 Pricilla Hur 0 25:48 8:36 11/4/10 Rio Hondo League Finals 1
105 Mackenzie Chang 2013 25:49 8:36 9/23/10 Rio Hondo Cluster #1 3
106 Jessica Prince 0 25:54 8:38 9/23/10 Rio Hondo Cluster #1 1
107 Kathy Liu 0 26:01 8:40 9/23/10 Rio Hondo Cluster #1 1
108 Vanessa Safawi 2021 26:12.85 8:44 11/2/17 Rio Hondo League Finals 2
109 Isabelle Whetsel 2023 26:46 8:55 9/26/19 Rio Hondo League #1 2
110 Helena Fu 2018 26:47.65 8:56 11/3/16 Rio Hondo League Finals 2
111 Tiffany Show 2012 26:52 8:57 9/23/10 Rio Hondo Cluster #1 3
112 Camille Whetsel 2024 26:56 8:59 9/23/21 Rio Hondo League Meet #1 2
113 Alaska Romero 2019 26:58.49 8:59 9/21/17 Rio Hondo League #1 1
114 Amber Chen 2022 27:07.9 9:03 11/1/18 Rio Hondo League Finals 2
115 Lily Dorn 2012 27:14 9:05 10/15/09 Rio Hondo Cluster #2 1
116 Hannah Bae 2022 27:23 9:08 11/7/19 Rio Hondo League Finals 1
117 Diana Kim 2012 27:36 9:12 11/4/10 Rio Hondo League Finals 1
118 June Kim 2013 28:01 9:20 11/4/10 Rio Hondo League Finals 1
119 Kathy Lui 2014 28:40 9:33 11/4/10 Rio Hondo League Finals 1
120 Asha Quibilan 2023 29:09 9:43 9/26/19 Rio Hondo League #1 2
121 Nicole Jimenez 2020 29:27.81 9:49 11/3/16 Rio Hondo League Finals 1
122 Esther Tanagho 2024 29:42 9:54 11/4/21 Rio Hondo League Finals 1
123 Keren Im 2012 30:15 10:05 10/15/09 Rio Hondo Cluster #2 1
124 Oi man Chiu 0 30:27 10:09 11/4/10 Rio Hondo League Finals 1
124 Jillian Goldstein 2022 30:27 10:09 9/26/19 Rio Hondo League #1 2
126 Kiera Atkinson 2021 30:47 10:16 11/7/19 Rio Hondo League Finals 2
127 Vivian 0 31:07 10:22 9/23/10 Rio Hondo Cluster #1 1
128 Ellie Nakamura 2024 32:58.45 10:59 11/4/21 Rio Hondo League Finals 1
129 Sophie Hu 2025 33:18 11:06 11/4/21 Rio Hondo League Finals 2
130 Bela Salazar 2022 33:42 11:14 11/7/19 Rio Hondo League Finals 1
131 Sora Abu Karash 2021 33:49.21 11:16 9/21/17 Rio Hondo League #1 1
132 sabrina torres 2019 33:52.33 11:17 9/21/17 Rio Hondo League #1 1
All Time Rank Runner Name Grad Year Time Pace PR Date PR Event # of
Races
Graph full race
history on course
(pick up to 7)

Note: All columns are sortable by clicking on the column heading.